Time;durP1;ratioP1;P1;durP2;ratioP2;P2;SDS_P1;SDS_P2;PMS_P1;PMS_P2;Temp;Humidity;BMP_temperature;BMP_pressure;BME280_temperature;BME280_humidity;BME280_pressure;Samples;Min_cycle;Max_cycle;Signal;HPM_P1;HPM_P2
2023/09/05 00:00:12;;;;;;;0.57;0.57;;;;;;;16.30;100.00;97834.94;5046946;28;20056;-73
2023/09/05 00:02:38;;;;;;;1.65;0.75;;;;;;;16.24;100.00;97838.13;5010499;28;20438;-72
2023/09/05 00:05:07;;;;;;;0.57;0.43;;;;;;;16.23;100.00;97844.50;5022736;28;20036;-72
2023/09/05 00:07:35;;;;;;;0.40;0.40;;;;;;;16.28;100.00;97850.38;5046496;28;20017;-72
2023/09/05 00:10:04;;;;;;;1.27;0.80;;;;;;;16.31;100.00;97843.88;5029889;28;20032;-72
2023/09/05 00:12:30;;;;;;;1.55;0.68;;;;;;;16.43;100.00;97857.25;5046525;28;20021;-72
2023/09/05 00:14:56;;;;;;;1.13;1.02;;;;;;;16.35;100.00;97832.72;5013606;28;20090;-72
2023/09/05 00:17:22;;;;;;;0.10;0.10;;;;;;;16.33;100.00;97832.00;5026578;28;20026;-74
2023/09/05 00:19:49;;;;;;;0.30;0.30;;;;;;;16.37;100.00;97844.25;5027072;28;20508;-72
2023/09/05 00:22:14;;;;;;;2.92;0.47;;;;;;;16.37;100.00;97838.84;5012412;28;20573;-72
2023/09/05 00:24:41;;;;;;;0.50;0.50;;;;;;;16.28;100.00;97843.16;5046165;28;20062;-72
2023/09/05 00:27:09;;;;;;;0.50;0.50;;;;;;;16.39;100.00;97847.69;5023505;28;20022;-72
2023/09/05 00:29:35;;;;;;;0.77;0.60;;;;;;;16.42;100.00;97831.25;5032024;28;20082;-72
2023/09/05 00:32:01;;;;;;;0.20;0.20;;;;;;;16.44;100.00;97834.69;5026643;28;20033;-72
2023/09/05 00:34:28;;;;;;;7.35;0.75;;;;;;;16.46;100.00;97830.00;5026097;28;20045;-73
2023/09/05 00:36:54;;;;;;;0.20;0.20;;;;;;;16.36;100.00;97826.34;5033670;28;20036;-72
2023/09/05 00:39:19;;;;;;;0.30;0.30;;;;;;;16.34;100.00;97824.72;5029606;28;20036;-72
2023/09/05 00:41:45;;;;;;;0.35;0.22;;;;;;;16.36;100.00;97829.06;5029516;28;20053;-72
2023/09/05 00:44:13;;;;;;;3.05;1.38;;;;;;;16.35;100.00;97826.47;5046265;28;20025;-72
2023/09/05 00:46:45;;;;;;;1.00;0.52;;;;;;;16.33;100.00;97821.19;5043848;27;20030;-72
2023/09/05 00:49:12;;;;;;;1.05;0.57;;;;;;;16.39;100.00;97814.44;5009750;28;20033;-72
2023/09/05 00:51:42;;;;;;;0.43;0.25;;;;;;;16.44;100.00;97815.78;5040076;28;20037;-72
2023/09/05 00:54:07;;;;;;;0.20;0.20;;;;;;;16.41;100.00;97813.31;5009999;28;20026;-72
2023/09/05 00:56:35;;;;;;;0.47;0.45;;;;;;;16.29;100.00;97792.72;5029862;28;20043;-72
2023/09/05 00:59:01;;;;;;;0.52;0.47;;;;;;;16.43;100.00;97815.88;5029737;28;20028;-72
2023/09/05 01:01:26;;;;;;;0.00;0.00;;;;;;;16.44;100.00;97807.69;5029195;28;20565;-73
2023/09/05 01:03:55;;;;;;;0.57;0.57;;;;;;;16.50;100.00;97823.38;5039964;28;20049;-72
2023/09/05 01:06:31;;;;;;;0.52;0.52;;;;;;;16.49;100.00;97812.72;5016874;28;20021;-72
2023/09/05 01:09:18;;;;;;;0.35;0.35;;;;;;;16.47;100.00;97812.81;5046120;28;20396;-72
2023/09/05 01:11:44;;;;;;;0.40;0.40;;;;;;;16.48;100.00;97813.69;5025908;28;20120;-72
2023/09/05 01:14:10;;;;;;;21.67;1.40;;;;;;;16.43;100.00;97799.69;5025841;28;20025;-72
2023/09/05 01:16:45;;;;;;;0.82;0.50;;;;;;;16.47;100.00;97801.16;5023905;28;20044;-72
2023/09/05 01:19:15;;;;;;;0.90;0.40;;;;;;;16.59;100.00;97811.84;5038565;28;20041;-72
2023/09/05 01:21:51;;;;;;;0.20;0.20;;;;;;;16.56;100.00;97804.00;5025168;28;20025;-72
2023/09/05 01:24:20;;;;;;;0.88;0.80;;;;;;;16.61;100.00;97806.34;5040057;28;20090;-72
2023/09/05 01:26:46;;;;;;;2.00;0.93;;;;;;;16.66;100.00;97804.97;5013110;28;20025;-72
2023/09/05 01:29:11;;;;;;;1.40;1.20;;;;;;;16.69;100.00;97806.56;5045455;28;20469;-72
2023/09/05 01:31:38;;;;;;;5.57;0.60;;;;;;;16.68;100.00;97800.28;5032409;28;20055;-72
2023/09/05 01:34:03;;;;;;;1.40;1.05;;;;;;;16.65;100.00;97797.84;5040586;28;20072;-72
2023/09/05 01:36:29;;;;;;;1.20;0.77;;;;;;;16.64;100.00;97804.22;5039669;28;20049;-72
2023/09/05 01:38:55;;;;;;;2.28;1.45;;;;;;;16.69;100.00;97806.56;5034724;28;20028;-73
2023/09/05 01:41:20;;;;;;;0.45;0.45;;;;;;;16.68;100.00;97805.69;5023992;28;20094;-72
2023/09/05 01:43:46;;;;;;;0.63;0.43;;;;;;;16.72;100.00;97807.16;5017061;28;20474;-72
2023/09/05 01:46:11;;;;;;;0.50;0.50;;;;;;;16.70;100.00;97787.50;5012304;28;20573;-72
2023/09/05 01:48:37;;;;;;;0.95;0.55;;;;;;;16.66;100.00;97790.59;5028760;28;20086;-72
2023/09/05 01:51:02;;;;;;;2.28;1.30;;;;;;;16.70;100.00;97803.72;5018489;28;20037;-73
2023/09/05 01:53:28;;;;;;;1.30;1.20;;;;;;;16.66;100.00;97801.41;5047290;28;20032;-73
2023/09/05 01:55:53;;;;;;;4.88;1.33;;;;;;;16.73;100.00;97816.97;5017330;28;20033;-72
2023/09/05 01:58:19;;;;;;;1.23;1.13;;;;;;;16.72;100.00;97815.28;5048330;28;20040;-73
2023/09/05 02:00:44;;;;;;;3.30;1.63;;;;;;;16.69;100.00;97809.25;5043497;28;20038;-73
2023/09/05 02:03:10;;;;;;;2.08;1.23;;;;;;;16.72;100.00;97815.28;5038246;28;20035;-73
2023/09/05 02:05:36;;;;;;;3.85;1.35;;;;;;;16.78;100.00;97824.72;5038048;28;20116;-73
2023/09/05 02:08:02;;;;;;;2.42;1.38;;;;;;;16.82;100.00;97815.38;5012282;28;20105;-73
2023/09/05 02:10:29;;;;;;;2.20;1.23;;;;;;;16.76;100.00;97808.59;5028585;28;20029;-73
2023/09/05 02:12:55;;;;;;;0.57;0.57;;;;;;;16.85;100.00;97811.56;5012273;28;20033;-73
2023/09/05 02:15:21;;;;;;;1.42;1.02;;;;;;;16.76;100.00;97816.72;5014435;28;20124;-73
2023/09/05 02:17:46;;;;;;;1.15;0.82;;;;;;;16.76;100.00;97814.00;5031690;28;20036;-73
2023/09/05 02:20:12;;;;;;;0.60;0.60;;;;;;;16.78;100.00;97812.06;5031639;28;20445;-73
2023/09/05 02:22:37;;;;;;;0.90;0.90;;;;;;;16.80;100.00;97820.88;5046519;28;20480;-73
2023/09/05 02:25:03;;;;;;;1.08;0.68;;;;;;;16.78;100.00;97813.91;5025394;28;20036;-74
2023/09/05 02:27:28;;;;;;;3.65;1.48;;;;;;;16.74;100.00;97807.03;5025901;28;20036;-73
2023/09/05 02:30:01;;;;;;;1.33;1.23;;;;;;;16.79;100.00;97811.09;5048286;28;20028;-73
2023/09/05 02:32:29;;;;;;;1.05;1.05;;;;;;;16.80;100.00;97803.81;5049224;28;20041;-73
2023/09/05 02:34:56;;;;;;;25.70;15.93;;;;;;;16.84;100.00;97802.59;5024198;28;20037;-73
2023/09/05 02:37:21;;;;;;;26.80;16.55;;;;;;;16.80;100.00;97810.09;5011368;28;20036;-73
2023/09/05 02:39:47;;;;;;;29.20;17.58;;;;;;;16.79;100.00;97802.97;5028355;28;20412;-73
2023/09/05 02:42:12;;;;;;;31.13;18.38;;;;;;;16.83;100.00;97808.13;5036301;28;20043;-71
2023/09/05 02:44:38;;;;;;;31.88;19.20;;;;;;;16.77;100.00;97809.47;5030876;28;20400;-72
2023/09/05 02:47:04;;;;;;;34.22;20.70;;;;;;;16.71;100.00;97810.84;5028014;28;20024;-73
2023/09/05 02:49:30;;;;;;;40.22;19.80;;;;;;;16.76;100.00;97814.00;5044569;28;20029;-72
2023/09/05 02:51:59;;;;;;;34.10;19.77;;;;;;;16.73;100.00;97816.97;5011588;28;20021;-72
2023/09/05 02:54:28;;;;;;;32.45;19.02;;;;;;;16.74;100.00;97825.94;5035228;28;20112;-72
2023/09/05 02:56:54;;;;;;;31.23;19.80;;;;;;;16.74;100.00;97834.03;5044743;28;20057;-72
2023/09/05 02:59:21;;;;;;;31.38;19.42;;;;;;;16.77;100.00;97831.94;5029020;28;20049;-73
2023/09/05 03:01:46;;;;;;;32.65;19.98;;;;;;;16.74;100.00;97832.19;5027877;28;20523;-73
2023/09/05 03:04:14;;;;;;;31.50;20.15;;;;;;;16.80;100.00;97837.09;5019480;28;20060;-73
2023/09/05 03:06:39;;;;;;;40.53;22.13;;;;;;;16.70;100.00;97833.44;5031141;28;20144;-73
2023/09/05 03:09:05;;;;;;;33.72;19.83;;;;;;;16.73;100.00;97835.06;5047739;28;20089;-73
2023/09/05 03:11:30;;;;;;;39.10;19.55;;;;;;;16.73;100.00;97840.44;5047410;28;20104;-73
2023/09/05 03:13:56;;;;;;;36.70;21.10;;;;;;;16.73;100.00;97835.88;5047598;28;20089;-73
2023/09/05 03:16:23;;;;;;;34.85;19.08;;;;;;;16.76;100.00;97840.19;5038234;28;20072;-74
2023/09/05 03:18:49;;;;;;;30.55;18.95;;;;;;;16.79;100.00;97840.81;5040467;28;20029;-73
2023/09/05 03:21:15;;;;;;;34.65;19.65;;;;;;;16.69;100.00;97837.13;5047605;28;20504;-73
2023/09/05 03:23:40;;;;;;;32.00;19.90;;;;;;;16.75;100.00;97831.22;5032981;28;20022;-73
2023/09/05 03:26:06;;;;;;;32.30;19.90;;;;;;;16.71;100.00;97837.84;5031268;28;20029;-73
2023/09/05 03:28:44;;;;;;;31.83;19.35;;;;;;;16.74;100.00;97848.41;5047245;28;20472;-73
2023/09/05 03:31:10;;;;;;;35.83;20.63;;;;;;;16.67;100.00;97846.34;5047340;28;20025;-73
2023/09/05 03:33:36;;;;;;;30.73;20.08;;;;;;;16.64;100.00;97852.84;5022642;28;20421;-73
2023/09/05 03:36:01;;;;;;;31.15;18.98;;;;;;;16.67;100.00;97843.66;5013638;28;20075;-73
2023/09/05 03:38:27;;;;;;;33.92;19.40;;;;;;;16.69;100.00;97836.28;5096036;28;20029;-73
2023/09/05 03:40:56;;;;;;;32.47;20.70;;;;;;;16.75;100.00;97843.88;5023439;28;20025;-73
2023/09/05 03:43:21;;;;;;;34.20;21.00;;;;;;;16.74;100.00;97837.59;5030445;28;20032;-73
2023/09/05 03:45:48;;;;;;;35.15;20.50;;;;;;;16.77;100.00;97837.34;5034856;28;20525;-73
2023/09/05 03:48:13;;;;;;;41.15;20.63;;;;;;;16.80;100.00;97836.25;5027270;28;20377;-73
2023/09/05 03:50:40;;;;;;;30.98;20.40;;;;;;;16.76;100.00;97840.19;5029104;28;20040;-73
2023/09/05 03:53:05;;;;;;;37.70;20.13;;;;;;;16.71;100.00;97847.81;5038467;28;20440;-74
2023/09/05 03:55:34;;;;;;;37.58;23.27;;;;;;;16.69;100.00;97847.94;5046671;28;20134;-74
2023/09/05 03:58:03;;;;;;;34.45;19.10;;;;;;;16.64;100.00;97847.44;5012181;28;20026;-74
2023/09/05 04:00:29;;;;;;;35.65;21.05;;;;;;;16.66;100.00;97845.50;5026834;28;20029;-75
2023/09/05 04:02:55;;;;;;;36.47;21.75;;;;;;;16.66;100.00;97859.00;5019755;28;20048;-74
2023/09/05 04:05:21;;;;;;;31.90;20.67;;;;;;;16.63;100.00;97851.16;5014387;28;20025;-72
2023/09/05 04:07:47;;;;;;;31.92;19.35;;;;;;;16.65;100.00;97853.72;5037496;28;20111;-73
2023/09/05 04:10:13;;;;;;;31.95;20.10;;;;;;;16.75;100.00;97852.84;5035627;28;20017;-73
2023/09/05 04:12:38;;;;;;;29.67;19.60;;;;;;;16.79;100.00;97856.16;5021689;28;20036;-73
2023/09/05 04:15:05;;;;;;;31.13;19.35;;;;;;;16.85;100.00;97855.66;5046479;28;20035;-77
2023/09/05 04:17:30;;;;;;;33.25;20.60;;;;;;;16.77;100.00;97858.09;5032809;28;20199;-73
2023/09/05 04:19:56;;;;;;;32.05;19.05;;;;;;;16.68;100.00;97848.91;5037495;28;20108;-74
2023/09/05 04:22:24;;;;;;;30.27;20.20;;;;;;;16.79;100.00;97851.63;5032423;28;20472;-74
2023/09/05 04:24:55;;;;;;;47.70;25.60;;;;;;;16.73;100.00;97840.44;5038278;28;20029;-72
2023/09/05 04:27:21;;;;;;;28.80;19.23;;;;;;;16.76;100.00;97841.03;5034307;28;20109;-75
2023/09/05 04:29:51;;;;;;;25.90;18.35;;;;;;;16.78;100.00;97843.63;5030542;28;20065;-76
2023/09/05 04:32:18;;;;;;;29.00;19.20;;;;;;;16.83;100.00;97845.97;5026709;28;20110;-74
2023/09/05 04:34:44;;;;;;;27.58;19.08;;;;;;;16.81;100.00;97846.06;5024724;28;20056;-75
2023/09/05 04:37:09;;;;;;;29.38;18.25;;;;;;;16.88;100.00;97838.31;5034158;28;20480;-75
2023/09/05 04:39:37;;;;;;;26.55;18.60;;;;;;;16.94;100.00;97844.09;5026402;28;20029;-74
2023/09/05 04:42:03;;;;;;;30.08;19.00;;;;;;;16.99;100.00;97836.44;5026243;28;20536;-74
2023/09/05 04:44:28;;;;;;;28.38;19.27;;;;;;;17.02;100.00;97856.94;5026434;28;20034;-74
2023/09/05 04:47:22;;;;;;;29.48;19.10;;;;;;;17.06;100.00;97848.47;5034319;28;20036;-73
2023/09/05 04:49:53;;;;;;;38.03;19.10;;;;;;;17.04;100.00;97844.19;5023638;28;20029;-74
2023/09/05 04:52:20;;;;;;;34.65;19.23;;;;;;;17.08;100.00;97845.63;5033346;28;20021;-74
2023/09/05 04:54:46;;;;;;;30.40;17.95;;;;;;;17.17;100.00;97844.84;5032815;28;20500;-74
2023/09/05 04:57:16;;;;;;;26.40;18.33;;;;;;;17.10;100.00;97844.50;5046459;28;20029;-74
2023/09/05 04:59:47;;;;;;;26.52;18.65;;;;;;;17.21;100.00;97847.19;5032950;28;20116;-84
2023/09/05 05:02:13;;;;;;;24.38;16.83;;;;;;;17.26;100.00;97839.53;5021129;28;20037;-81
2023/09/05 05:04:40;;;;;;;27.05;17.77;;;;;;;17.09;100.00;97821.19;5049761;28;20060;-75
2023/09/05 05:07:06;;;;;;;27.48;17.42;;;;;;;17.21;100.00;97846.31;5015573;28;20463;-73
2023/09/05 05:09:31;;;;;;;25.90;17.25;;;;;;;17.16;100.00;97826.94;5035296;28;20112;-73
2023/09/05 05:11:57;;;;;;;26.02;16.45;;;;;;;17.14;100.00;97816.22;5049086;28;20116;-72
2023/09/05 05:14:22;;;;;;;23.40;16.40;;;;;;;17.28;100.00;97825.91;5030752;28;20033;-72
2023/09/05 05:16:49;;;;;;;22.35;14.93;;;;;;;17.22;100.00;97804.78;5029349;28;20481;-72
2023/09/05 05:19:14;;;;;;;19.50;13.77;;;;;;;17.39;100.00;97828.53;5030424;28;20036;-72
2023/09/05 05:21:40;;;;;;;22.33;14.73;;;;;;;17.34;100.00;97841.59;5030627;28;20029;-73
2023/09/05 05:24:06;;;;;;;34.55;14.93;;;;;;;17.23;100.00;97822.72;5035905;28;20489;-73
2023/09/05 05:26:32;;;;;;;22.58;13.73;;;;;;;17.30;100.00;97834.72;5032972;28;20032;-73
2023/09/05 05:28:58;;;;;;;24.48;15.50;;;;;;;17.25;100.00;97834.28;5031777;28;20025;-73
2023/09/05 05:31:23;;;;;;;18.80;12.70;;;;;;;17.29;100.00;97838.41;5028917;28;20025;-73
2023/09/05 05:33:49;;;;;;;24.45;14.05;;;;;;;17.27;100.00;97830.44;5029070;28;20509;-72
2023/09/05 05:36:14;;;;;;;19.95;14.38;;;;;;;17.24;100.00;97838.81;5046503;28;20408;-73
2023/09/05 05:38:40;;;;;;;16.73;12.55;;;;;;;17.20;100.00;97839.19;5036100;28;20034;-72
2023/09/05 05:41:09;;;;;;;15.98;12.18;;;;;;;17.24;100.00;97843.34;5045136;28;20032;-74
2023/09/05 05:43:35;;;;;;;16.30;12.27;;;;;;;17.21;100.00;97830.97;5048550;28;20029;-73
2023/09/05 05:46:00;;;;;;;16.48;12.38;;;;;;;17.26;100.00;97847.66;5048615;28;20021;-73
2023/09/05 05:48:26;;;;;;;14.73;11.40;;;;;;;17.25;100.00;97845.09;5048123;28;20025;-73
2023/09/05 05:50:51;;;;;;;18.58;12.63;;;;;;;17.25;100.00;97843.25;5032055;28;20413;-73
2023/09/05 05:53:20;;;;;;;18.90;12.48;;;;;;;17.26;100.00;97838.66;5014246;28;20029;-73
2023/09/05 05:55:46;;;;;;;17.15;13.38;;;;;;;17.39;100.00;97833.09;5028333;28;20132;-73
2023/09/05 05:58:13;;;;;;;29.45;18.92;;;;;;;17.48;100.00;97849.41;5028385;28;20034;-73
2023/09/05 06:00:44;;;;;;;19.60;14.50;;;;;;;17.37;100.00;97841.34;5028502;28;20025;-73
2023/09/05 06:03:11;;;;;;;21.92;15.48;;;;;;;17.41;100.00;97848.19;5028965;28;20101;-71
2023/09/05 06:05:37;;;;;;;21.75;13.63;;;;;;;17.39;100.00;97850.19;5010356;28;20026;-72
2023/09/05 06:08:02;;;;;;;16.63;11.95;;;;;;;17.43;100.00;97857.06;5025430;28;20400;-75
2023/09/05 06:10:28;;;;;;;17.70;10.88;;;;;;;17.47;100.00;97855.81;5047099;28;20049;-74
2023/09/05 06:12:53;;;;;;;15.52;11.38;;;;;;;17.43;100.00;97850.78;5008372;28;20109;-74
2023/09/05 06:15:19;;;;;;;13.88;10.45;;;;;;;17.42;100.00;97833.69;5028004;28;20029;-75
2023/09/05 06:17:45;;;;;;;18.70;11.57;;;;;;;17.51;100.00;97851.84;5047212;28;20036;-74
2023/09/05 06:20:11;;;;;;;13.73;10.60;;;;;;;17.61;100.00;97855.53;5031492;28;20025;-74
2023/09/05 06:22:38;;;;;;;16.02;10.75;;;;;;;17.57;100.00;97859.47;5048934;28;20021;-74
2023/09/05 06:25:05;;;;;;;16.33;11.38;;;;;;;17.65;100.00;97854.28;5048071;28;20029;-74
2023/09/05 06:27:31;;;;;;;15.60;10.20;;;;;;;17.63;100.00;97853.53;5031151;28;20025;-74
2023/09/05 06:29:57;;;;;;;15.05;10.85;;;;;;;17.74;100.00;97858.91;5047583;28;20040;-74
2023/09/05 06:32:22;;;;;;;15.52;10.55;;;;;;;17.73;100.00;97857.16;5040505;28;20029;-74
2023/09/05 06:34:48;;;;;;;16.05;11.15;;;;;;;17.70;100.00;97857.44;5030287;28;20088;-74
2023/09/05 06:37:13;;;;;;;15.98;10.82;;;;;;;17.67;100.00;97855.00;5064567;28;20556;-74
2023/09/05 06:39:39;;;;;;;17.85;11.45;;;;;;;17.63;100.00;97860.78;5021013;28;20123;-74
2023/09/05 06:42:08;;;;;;;37.42;25.70;;;;;;;17.68;100.00;97870.25;5027686;28;20495;-74
2023/09/05 06:44:33;;;;;;;23.30;14.60;;;;;;;17.68;100.00;97864.84;5027706;28;20030;-75
2023/09/05 06:46:59;;;;;;;20.35;12.45;;;;;;;17.71;100.00;97872.69;5040444;28;20025;-75
2023/09/05 06:49:25;;;;;;;21.63;12.38;;;;;;;17.76;100.00;97862.31;5023654;28;20048;-76
2023/09/05 06:51:50;;;;;;;18.50;12.27;;;;;;;17.81;100.00;97864.66;5044047;28;20040;-76
2023/09/05 06:54:16;;;;;;;18.60;11.00;;;;;;;17.79;100.00;97883.72;5027713;28;20030;-75
2023/09/05 06:56:41;;;;;;;20.92;10.50;;;;;;;17.74;100.00;97874.28;5031314;28;20447;-75
2023/09/05 06:59:17;;;;;;;14.30;10.50;;;;;;;17.71;100.00;97872.69;5034672;28;20037;-75
2023/09/05 07:01:46;;;;;;;17.63;11.13;;;;;;;17.85;100.00;97890.44;5038116;28;20043;-75
2023/09/05 07:04:13;;;;;;;23.00;11.18;;;;;;;17.84;100.00;97889.56;5047338;28;20111;-76
2023/09/05 07:06:39;;;;;;;20.08;11.50;;;;;;;17.91;100.00;97894.47;5030957;28;20032;-75
2023/09/05 07:09:08;;;;;;;19.63;10.57;;;;;;;17.92;100.00;97898.91;5047107;28;20029;-75
2023/09/05 07:11:34;;;;;;;13.77;10.40;;;;;;;18.05;100.00;97892.31;5047569;28;20075;-75
2023/09/05 07:13:59;;;;;;;12.70;9.77;;;;;;;18.15;100.00;97895.06;5029958;28;20028;-75
2023/09/05 07:16:25;;;;;;;15.68;9.73;;;;;;;18.15;100.00;97892.38;5030217;28;20373;-75
2023/09/05 07:18:51;;;;;;;14.57;10.10;;;;;;;18.12;100.00;97908.88;5030533;28;20044;-75
2023/09/05 07:21:16;;;;;;;12.82;9.70;;;;;;;18.05;100.00;97895.00;5029941;28;20111;-75
2023/09/05 07:23:42;;;;;;;27.13;18.48;;;;;;;18.21;100.00;97908.06;5030253;28;20033;-75
2023/09/05 07:26:08;;;;;;;16.17;10.27;;;;;;;18.29;100.00;97916.38;5037504;28;20477;-75
2023/09/05 07:28:34;;;;;;;19.27;11.35;;;;;;;18.33;100.00;97904.31;5027124;28;20036;-75
2023/09/05 07:31:00;;;;;;;14.45;9.80;;;;;;;18.65;100.00;97905.03;5010508;28;20033;-75
2023/09/05 07:33:26;;;;;;;12.85;9.85;;;;;;;18.86;100.00;97911.25;5010045;28;20047;-75
2023/09/05 07:35:51;;;;;;;13.68;8.77;;;;;;;19.24;100.00;97909.66;5010526;28;20408;-75
2023/09/05 07:38:20;;;;;;;15.25;9.18;;;;;;;19.26;100.00;97908.50;5010352;28;20040;-75
2023/09/05 07:40:47;;;;;;;16.15;8.88;;;;;;;19.19;100.00;97911.94;5035401;28;20021;-74
2023/09/05 07:43:13;;;;;;;15.18;9.70;;;;;;;19.19;100.00;97911.94;5010205;28;20033;-74
2023/09/05 07:45:38;;;;;;;14.90;9.38;;;;;;;19.26;100.00;97910.34;5023233;28;20512;-74
2023/09/05 07:48:07;;;;;;;15.60;8.85;;;;;;;18.96;100.00;97914.00;5046351;28;20024;-75
2023/09/05 07:50:34;;;;;;;14.90;8.90;;;;;;;18.70;100.00;97919.03;5029870;28;20089;-74
2023/09/05 07:52:59;;;;;;;11.05;8.75;;;;;;;18.93;100.00;97923.28;5035957;28;20121;-75
2023/09/05 07:55:25;;;;;;;11.82;9.10;;;;;;;19.02;100.00;97926.13;5023752;28;20072;-75
2023/09/05 07:57:51;;;;;;;18.15;9.32;;;;;;;19.25;100.00;97924.94;5046576;28;20029;-75
2023/09/05 08:00:17;;;;;;;11.65;9.38;;;;;;;19.34;100.00;97918.66;5034170;28;20060;-75
2023/09/05 08:02:43;;;;;;;12.18;8.43;;;;;;;19.42;100.00;97918.84;5010063;28;20520;-75
2023/09/05 08:05:09;;;;;;;13.85;9.10;;;;;;;19.50;100.00;97915.44;5026336;28;20025;-75
2023/09/05 08:07:36;;;;;;;12.40;9.70;;;;;;;19.49;100.00;97920.00;5026368;28;20025;-74
2023/09/05 08:10:01;;;;;;;18.15;9.75;;;;;;;19.36;100.00;97919.38;5009983;28;20037;-75
2023/09/05 08:12:27;;;;;;;16.27;9.63;;;;;;;19.44;100.00;97916.88;5009894;28;20021;-75
2023/09/05 08:14:52;;;;;;;14.25;9.20;;;;;;;19.51;100.00;97896.28;5010097;28;20040;-75
2023/09/05 08:17:18;;;;;;;19.45;9.80;;;;;;;19.57;100.00;97912.00;5009778;28;20082;-75
2023/09/05 08:19:44;;;;;;;14.07;8.95;;;;;;;19.65;100.00;97909.47;5010021;28;20032;-73
2023/09/05 08:22:12;;;;;;;23.85;9.82;;;;;;;19.60;100.00;97891.84;5034291;28;20040;-74
2023/09/05 08:24:37;;;;;;;11.52;8.57;;;;;;;19.61;100.00;97912.59;5038550;28;20434;-73
2023/09/05 08:27:05;;;;;;;10.57;8.45;;;;;;;19.64;100.00;97918.59;5046492;28;20043;-73
2023/09/05 08:29:32;;;;;;;18.60;9.65;;;;;;;19.45;100.00;97905.88;5044675;28;20477;-74
2023/09/05 08:31:58;;;;;;;15.93;8.70;;;;;;;19.70;100.00;97918.03;5010921;28;20030;-73
2023/09/05 08:34:24;;;;;;;21.05;12.10;;;;;;;19.75;100.00;97926.59;5030743;28;20124;-74
2023/09/05 08:36:50;;;;;;;19.50;10.13;;;;;;;19.75;100.00;97921.16;5036436;28;20132;-73
2023/09/05 08:39:15;;;;;;;12.27;8.48;;;;;;;19.68;100.00;97917.31;5046248;28;20047;-74
2023/09/05 08:41:42;;;;;;;16.33;8.73;;;;;;;19.72;100.00;97916.00;5049650;28;20029;-73
2023/09/05 08:44:08;;;;;;;14.32;9.60;;;;;;;19.72;100.00;97921.44;5049605;28;20112;-73
2023/09/05 08:46:35;;;;;;;13.73;8.23;;;;;;;19.66;100.00;97924.72;5032650;28;20117;-73
2023/09/05 08:49:01;;;;;;;16.35;8.57;;;;;;;19.91;100.00;97918.72;5049649;28;20064;-73
2023/09/05 08:51:32;;;;;;;11.23;7.40;;;;;;;20.57;100.00;97913.34;5014780;28;20072;-73
2023/09/05 08:54:00;;;;;;;15.00;8.57;;;;;;;20.85;100.00;97914.25;5018801;28;20120;-73
2023/09/05 08:56:26;;;;;;;17.95;12.25;;;;;;;21.12;100.00;97913.41;5016012;28;20069;-73
2023/09/05 08:58:52;;;;;;;13.13;10.10;;;;;;;21.06;100.00;97906.69;5045063;28;20117;-73
2023/09/05 09:01:19;;;;;;;16.70;8.88;;;;;;;21.59;100.00;97902.22;5029431;28;20060;-75
2023/09/05 09:03:45;;;;;;;10.98;7.68;;;;;;;21.40;100.00;97902.38;5036904;28;20025;-75
2023/09/05 09:06:10;;;;;;;9.75;7.18;;;;;;;21.69;100.00;97902.13;5036318;28;20028;-75
2023/09/05 09:08:43;;;;;;;10.35;7.03;;;;;;;21.94;100.00;97909.56;5038784;28;20141;-75
2023/09/05 09:11:10;;;;;;;10.77;6.78;;;;;;;22.17;100.00;97899.03;5012615;28;20060;-75
2023/09/05 09:13:37;;;;;;;8.98;7.25;;;;;;;22.43;100.00;97899.03;5020758;28;20057;-75
2023/09/05 09:16:03;;;;;;;7.07;6.32;;;;;;;22.47;100.00;97887.66;5012775;28;20097;-74
2023/09/05 09:18:32;;;;;;;8.73;6.53;;;;;;;22.38;100.00;97882.31;5037968;28;20033;-74
2023/09/05 09:21:02;;;;;;;12.20;6.20;;;;;;;22.40;100.00;97885.72;5032844;28;20476;-73
2023/09/05 09:23:30;;;;;;;10.50;6.63;;;;;;;22.90;100.00;97864.91;5032247;28;20024;-73
2023/09/05 09:25:57;;;;;;;9.85;6.13;;;;;;;22.94;100.00;97879.06;5044500;28;20021;-73
2023/09/05 09:28:24;;;;;;;10.23;6.55;;;;;;;23.31;100.00;97876.81;5012765;28;20397;-74
2023/09/05 09:31:01;;;;;;;10.88;6.10;;;;;;;23.84;100.00;97883.78;5048389;28;20094;-73
2023/09/05 09:33:29;;;;;;;10.98;6.47;;;;;;;24.50;100.00;97879.00;5023581;28;20124;-74
2023/09/05 09:36:01;;;;;;;17.35;6.95;;;;;;;25.10;100.00;97870.28;5016454;28;21931;-74
2023/09/05 09:38:27;;;;;;;10.02;6.03;;;;;;;25.64;99.59;97852.03;5042188;28;20029;-74
2023/09/05 09:40:52;;;;;;;9.55;6.55;;;;;;;25.27;100.00;97863.69;5023949;28;20028;-73
2023/09/05 09:43:18;;;;;;;7.90;6.47;;;;;;;26.37;94.40;97853.16;5031699;28;20020;-74
2023/09/05 09:45:44;;;;;;;12.45;6.10;;;;;;;26.28;93.11;97856.16;5048503;28;20497;-74
2023/09/05 09:48:10;;;;;;;10.10;6.07;;;;;;;27.20;86.27;97858.38;5018495;28;20021;-74
2023/09/05 09:50:36;;;;;;;11.63;5.85;;;;;;;26.37;92.88;97860.50;5028689;28;20497;-75
2023/09/05 09:53:04;;;;;;;10.32;5.75;;;;;;;24.66;100.00;97878.09;5016622;28;20025;-75
2023/09/05 09:55:32;;;;;;;8.13;6.00;;;;;;;24.97;100.00;97879.06;5048425;28;20025;-73
2023/09/05 09:58:05;;;;;;;8.57;5.97;;;;;;;25.96;97.12;97865.50;5040204;28;20036;-74
2023/09/05 10:00:36;;;;;;;9.77;6.80;;;;;;;26.04;95.14;97864.56;5048337;28;20025;-73
2023/09/05 10:03:04;;;;;;;11.23;7.07;;;;;;;26.07;96.28;97884.25;5033553;28;20403;-74
2023/09/05 10:05:30;;;;;;;11.43;6.10;;;;;;;25.86;97.69;97870.38;5040832;28;20030;-74
2023/09/05 10:07:57;;;;;;;10.13;5.47;;;;;;;25.48;97.68;97863.03;5036800;28;20026;-74
2023/09/05 10:10:26;;;;;;;8.30;5.60;;;;;;;25.32;97.63;97861.25;5018323;28;20076;-74
2023/09/05 10:12:56;;;;;;;11.02;5.35;;;;;;;24.99;97.86;97860.56;5048066;28;20526;-74
2023/09/05 10:15:21;;;;;;;12.18;6.03;;;;;;;24.88;100.00;97860.97;5031663;28;20029;-75
2023/09/05 10:17:50;;;;;;;10.18;5.30;;;;;;;24.65;100.00;97846.28;5031251;28;20021;-75
2023/09/05 10:20:19;;;;;;;6.57;5.10;;;;;;;24.71;100.00;97849.16;5042767;28;20024;-73
2023/09/05 10:22:46;;;;;;;12.77;5.70;;;;;;;24.50;100.00;97848.03;5021104;28;20576;-74
2023/09/05 10:25:14;;;;;;;9.77;5.25;;;;;;;24.41;100.00;97849.94;5047786;28;20029;-75
2023/09/05 10:27:40;;;;;;;13.63;5.30;;;;;;;24.89;97.67;97843.50;5031024;28;20541;-74
2023/09/05 10:30:07;;;;;;;8.55;4.88;;;;;;;24.44;98.49;97859.69;5011276;28;20026;-74
2023/09/05 10:32:35;;;;;;;8.55;5.18;;;;;;;24.06;100.00;97856.59;5011264;28;20037;-74
2023/09/05 10:35:02;;;;;;;10.45;5.63;;;;;;;24.31;100.00;97845.69;5039327;28;20025;-76
2023/09/05 10:37:39;;;;;;;8.35;5.25;;;;;;;24.24;99.01;97856.47;5047901;28;20025;-74
2023/09/05 10:40:08;;;;;;;8.32;5.32;;;;;;;24.17;98.22;97850.00;5031058;28;20035;-74
2023/09/05 10:42:36;;;;;;;10.55;7.28;;;;;;;24.35;96.75;97850.63;5031002;28;20040;-74
2023/09/05 10:45:40;;;;;;;12.45;4.78;;;;;;;23.99;97.95;97849.28;5044925;28;20037;-74
2023/09/05 10:48:17;;;;;;;6.35;4.60;;;;;;;23.35;100.00;97852.78;5008977;28;20041;-74
2023/09/05 10:51:14;;;;;;;9.23;4.60;;;;;;;22.92;100.00;97868.31;5030995;28;20029;-75
2023/09/05 10:53:47;;;;;;;7.18;4.40;;;;;;;22.50;100.00;97867.38;5010998;28;20179;-73
2023/09/05 10:56:40;;;;;;;5.35;4.22;;;;;;;22.46;100.00;97875.03;5010239;28;20017;-73
2023/09/05 10:59:27;;;;;;;7.35;4.80;;;;;;;22.82;100.00;97853.97;5028593;28;20048;-74
2023/09/05 11:02:05;;;;;;;6.00;4.30;;;;;;;23.14;100.00;97856.81;5022377;28;20382;-74
2023/09/05 11:04:34;;;;;;;14.27;4.63;;;;;;;23.47;100.00;97838.63;5041928;28;20552;-74
2023/09/05 11:07:09;;;;;;;11.95;4.93;;;;;;;24.62;98.20;97843.91;5012686;28;20029;-74
2023/09/05 11:09:44;;;;;;;6.00;3.80;;;;;;;25.58;84.67;97822.59;5027423;28;20021;-74
2023/09/05 11:12:11;;;;;;;5.35;4.13;;;;;;;26.23;80.77;97822.94;5010788;28;20025;-74
2023/09/05 11:14:37;;;;;;;11.02;3.78;;;;;;;26.93;77.27;97804.16;5027215;28;20025;-74
2023/09/05 11:17:02;;;;;;;5.13;4.35;;;;;;;27.42;68.68;97796.09;5012768;28;20523;-74